Time;durP1;ratioP1;P1;durP2;ratioP2;P2;SDS_P1;SDS_P2;PMS_P1;PMS_P2;Temp;Humidity;BMP_temperature;BMP_pressure;BME280_temperature;BME280_humidity;BME280_pressure;Samples;Min_cycle;Max_cycle;Signal;HPM_P1;HPM_P2
2021/06/28 00:01:31;;;;;;;13.88;10.88;;;17.90;98.70;;;;;;5033015;28;20025;-67
2021/06/28 00:03:57;;;;;;;15.88;11.10;;;18.00;98.80;;;;;;5033115;28;20467;-67
2021/06/28 00:06:22;;;;;;;13.43;11.07;;;18.00;98.80;;;;;;5033194;28;20025;-67
2021/06/28 00:08:48;;;;;;;11.77;10.30;;;18.00;98.80;;;;;;5036288;28;20022;-67
2021/06/28 00:11:14;;;;;;;14.05;10.32;;;18.00;98.80;;;;;;5036138;28;20029;-67
2021/06/28 00:13:42;;;;;;;14.25;11.07;;;18.00;98.80;;;;;;5037063;28;20045;-67
2021/06/28 00:16:33;;;;;;;12.85;11.50;;;18.00;98.80;;;;;;5037060;28;20037;-67
2021/06/28 00:19:02;;;;;;;10.90;9.63;;;18.10;98.80;;;;;;5037196;28;20036;-67
2021/06/28 00:21:27;;;;;;;11.43;10.23;;;18.10;98.80;;;;;;5035902;28;20021;-67
2021/06/28 00:23:53;;;;;;;11.95;10.63;;;18.10;98.80;;;;;;5024851;28;20024;-67
2021/06/28 00:26:19;;;;;;;12.95;11.15;;;18.10;98.90;;;;;;5017223;28;20062;-67
2021/06/28 00:28:44;;;;;;;11.35;10.18;;;18.10;98.80;;;;;;5017017;28;20030;-67
2021/06/28 00:31:10;;;;;;;13.43;11.23;;;18.00;98.80;;;;;;5017169;28;20080;-67
2021/06/28 00:33:35;;;;;;;13.75;10.68;;;18.00;98.80;;;;;;5017330;28;20025;-67
2021/06/28 00:36:01;;;;;;;12.50;10.27;;;18.00;98.80;;;;;;5036505;28;20029;-67
2021/06/28 00:38:26;;;;;;;14.10;10.52;;;17.90;98.80;;;;;;5036822;28;20138;-67
2021/06/28 00:40:52;;;;;;;13.32;10.65;;;17.90;98.80;;;;;;5036925;28;20100;-67
2021/06/28 00:43:17;;;;;;;12.73;10.68;;;17.80;98.90;;;;;;5036626;28;20033;-67
2021/06/28 00:45:43;;;;;;;15.02;11.07;;;17.80;98.90;;;;;;5036865;28;20436;-67
2021/06/28 00:48:11;;;;;;;11.75;9.35;;;17.70;99.00;;;;;;5035191;28;20517;-67
2021/06/28 00:50:41;;;;;;;12.75;10.45;;;17.70;99.00;;;;;;5036839;28;20029;-67
2021/06/28 00:53:09;;;;;;;11.88;9.95;;;17.70;99.10;;;;;;5036388;28;20096;-67
2021/06/28 00:55:36;;;;;;;10.32;9.23;;;17.60;99.10;;;;;;5036662;28;20025;-67
2021/06/28 00:58:03;;;;;;;10.57;8.48;;;17.60;99.10;;;;;;5034891;28;20044;-67
2021/06/28 01:00:28;;;;;;;14.57;10.55;;;17.60;99.10;;;;;;5036209;28;20029;-67
2021/06/28 01:02:56;;;;;;;11.35;9.18;;;17.60;99.10;;;;;;5035040;28;20021;-67
2021/06/28 01:05:25;;;;;;;13.00;10.95;;;17.50;99.20;;;;;;5036214;28;20021;-67
2021/06/28 01:07:51;;;;;;;12.63;9.45;;;17.50;99.20;;;;;;5036297;28;20104;-67
2021/06/28 01:10:18;;;;;;;12.32;10.10;;;17.40;99.20;;;;;;5036313;28;20104;-67
2021/06/28 01:12:46;;;;;;;11.90;10.60;;;17.40;99.20;;;;;;5035788;28;20037;-68
2021/06/28 01:15:12;;;;;;;11.90;10.15;;;17.40;99.20;;;;;;5036128;28;20435;-67
2021/06/28 01:17:39;;;;;;;11.85;9.38;;;17.40;99.30;;;;;;5036025;28;20041;-67
2021/06/28 01:20:11;;;;;;;10.23;9.05;;;17.30;99.30;;;;;;5034327;28;20025;-67
2021/06/28 01:22:40;;;;;;;11.00;9.25;;;17.30;99.30;;;;;;5035606;28;20017;-67
2021/06/28 01:25:09;;;;;;;11.77;9.70;;;17.30;99.40;;;;;;5034597;28;20049;-67
2021/06/28 01:27:35;;;;;;;11.55;9.38;;;17.30;99.40;;;;;;5035793;28;20030;-67
2021/06/28 01:30:00;;;;;;;9.98;8.60;;;17.20;99.40;;;;;;5035854;28;20033;-67
2021/06/28 01:32:27;;;;;;;15.35;10.80;;;17.20;99.40;;;;;;5034443;28;20395;-67
2021/06/28 01:34:53;;;;;;;12.55;9.95;;;17.20;99.40;;;;;;5035799;28;20464;-68
2021/06/28 01:37:18;;;;;;;12.00;9.43;;;17.20;99.50;;;;;;5035578;28;20041;-67
2021/06/28 01:39:44;;;;;;;10.50;9.05;;;17.20;99.50;;;;;;5035482;28;20021;-67
2021/06/28 01:42:10;;;;;;;14.95;10.38;;;17.20;99.50;;;;;;5035467;28;20160;-67
2021/06/28 01:44:35;;;;;;;12.00;9.27;;;17.10;99.50;;;;;;5035575;28;20078;-67
2021/06/28 01:47:01;;;;;;;13.90;9.80;;;17.10;99.50;;;;;;5035760;28;20072;-67
2021/06/28 01:49:27;;;;;;;13.52;11.43;;;17.10;99.60;;;;;;5035606;28;20030;-67
2021/06/28 01:51:53;;;;;;;13.70;10.70;;;17.10;99.60;;;;;;5035340;28;20033;-67
2021/06/28 01:54:18;;;;;;;17.08;12.98;;;17.00;99.60;;;;;;5035367;28;20029;-67
2021/06/28 01:56:44;;;;;;;13.55;12.07;;;17.00;99.60;;;;;;5035244;28;20080;-67
2021/06/28 01:59:13;;;;;;;15.55;12.32;;;17.00;99.70;;;;;;5035490;28;20084;-67
2021/06/28 02:01:39;;;;;;;13.25;10.82;;;17.00;99.70;;;;;;5035116;28;20025;-67
2021/06/28 02:04:05;;;;;;;15.23;11.07;;;17.00;99.80;;;;;;5033910;28;20117;-67
2021/06/28 02:06:31;;;;;;;12.43;10.10;;;17.00;99.80;;;;;;5035079;28;20394;-67
2021/06/28 02:08:56;;;;;;;15.90;12.57;;;16.90;99.80;;;;;;5035217;28;20108;-67
2021/06/28 02:11:22;;;;;;;13.07;10.45;;;16.90;99.80;;;;;;5033496;28;20042;-67
2021/06/28 02:13:47;;;;;;;13.02;11.18;;;16.90;99.90;;;;;;5034801;28;20403;-67
2021/06/28 02:16:13;;;;;;;13.63;11.77;;;16.80;99.90;;;;;;5035095;28;20442;-67
2021/06/28 02:18:39;;;;;;;12.77;11.10;;;16.80;99.90;;;;;;5034971;28;20032;-67
2021/06/28 02:21:06;;;;;;;16.45;10.10;;;16.80;99.90;;;;;;5022828;28;20068;-67
2021/06/28 02:23:39;;;;;;;12.65;10.77;;;16.80;99.90;;;;;;5024917;28;20060;-67
2021/06/28 02:26:10;;;;;;;11.95;9.45;;;16.80;99.90;;;;;;5034696;28;20480;-67
2021/06/28 02:28:38;;;;;;;13.23;10.80;;;16.70;99.90;;;;;;5034843;28;20037;-67
2021/06/28 02:31:06;;;;;;;18.52;10.90;;;16.70;99.90;;;;;;5033864;28;20030;-67
2021/06/28 02:33:33;;;;;;;15.93;11.18;;;16.60;99.90;;;;;;5034741;28;20104;-67
2021/06/28 02:35:59;;;;;;;11.75;8.57;;;16.60;99.90;;;;;;5034599;28;20479;-67
2021/06/28 02:38:25;;;;;;;13.45;9.50;;;16.60;99.90;;;;;;5034698;28;20099;-67
2021/06/28 02:40:51;;;;;;;13.68;10.73;;;16.60;99.90;;;;;;5034764;28;20061;-67
2021/06/28 02:43:18;;;;;;;13.90;11.40;;;16.50;99.90;;;;;;5034386;28;20053;-67
2021/06/28 02:45:43;;;;;;;12.75;11.35;;;16.50;99.90;;;;;;5034411;28;20032;-67
2021/06/28 02:48:09;;;;;;;12.88;11.18;;;16.40;99.90;;;;;;5034672;28;20021;-67
2021/06/28 02:50:35;;;;;;;16.48;13.07;;;16.40;99.90;;;;;;5034308;28;20029;-67
2021/06/28 02:53:01;;;;;;;14.88;11.82;;;16.40;99.90;;;;;;5034128;28;20014;-67
2021/06/28 02:55:27;;;;;;;14.10;10.70;;;16.30;99.90;;;;;;5034253;28;20095;-67
2021/06/28 02:57:52;;;;;;;13.00;10.80;;;16.30;99.90;;;;;;5034357;28;20464;-67
2021/06/28 03:00:19;;;;;;;12.25;10.35;;;16.30;99.90;;;;;;5034092;28;20025;-67
2021/06/28 03:02:44;;;;;;;16.35;12.55;;;16.20;99.90;;;;;;5034007;28;20021;-67
2021/06/28 03:05:11;;;;;;;14.32;10.88;;;16.20;99.90;;;;;;5034074;28;20040;-67
2021/06/28 03:07:37;;;;;;;15.15;12.48;;;16.20;99.90;;;;;;5033795;28;20030;-67
2021/06/28 03:10:12;;;;;;;15.57;13.45;;;16.20;99.90;;;;;;5033993;28;20040;-67
2021/06/28 03:12:39;;;;;;;15.00;10.18;;;16.20;99.90;;;;;;5032506;28;20052;-67
2021/06/28 03:15:07;;;;;;;13.25;11.18;;;16.20;99.90;;;;;;5033862;28;20032;-67
2021/06/28 03:17:34;;;;;;;12.80;11.25;;;16.10;99.90;;;;;;5033842;28;20051;-67
2021/06/28 03:20:00;;;;;;;12.95;11.45;;;16.10;99.90;;;;;;5033714;28;20029;-67
2021/06/28 03:22:26;;;;;;;15.82;13.35;;;16.10;99.90;;;;;;5033621;28;20024;-67
2021/06/28 03:24:51;;;;;;;11.85;9.98;;;16.10;99.90;;;;;;5033993;28;20025;-67
2021/06/28 03:27:17;;;;;;;12.90;11.05;;;16.10;99.90;;;;;;5033669;28;20087;-67
2021/06/28 03:29:42;;;;;;;14.10;11.70;;;16.00;99.90;;;;;;5033870;28;20033;-67
2021/06/28 03:32:08;;;;;;;11.65;10.18;;;16.00;99.90;;;;;;5032402;28;20124;-67
2021/06/28 03:34:34;;;;;;;13.75;11.02;;;16.00;99.90;;;;;;5032147;28;20041;-67
2021/06/28 03:36:59;;;;;;;12.70;11.20;;;16.00;99.90;;;;;;5033316;28;20029;-67
2021/06/28 03:39:24;;;;;;;17.67;12.95;;;15.90;99.90;;;;;;5033490;28;20025;-67
2021/06/28 03:41:50;;;;;;;16.90;13.00;;;16.00;99.90;;;;;;5033545;28;20380;-67
2021/06/28 03:44:16;;;;;;;18.42;13.85;;;16.00;99.90;;;;;;5032224;28;20032;-67
2021/06/28 03:46:41;;;;;;;29.48;13.68;;;16.00;99.90;;;;;;5032183;28;20033;-67
2021/06/28 03:49:07;;;;;;;16.33;12.43;;;16.00;99.90;;;;;;5033407;28;20028;-67
2021/06/28 03:51:32;;;;;;;17.67;14.68;;;16.00;99.90;;;;;;5033146;28;20033;-67
2021/06/28 03:53:58;;;;;;;17.65;14.65;;;16.00;99.90;;;;;;5033554;28;20033;-67
2021/06/28 03:56:23;;;;;;;18.15;14.88;;;16.00;99.90;;;;;;5033252;28;20379;-67
2021/06/28 03:58:49;;;;;;;17.15;15.10;;;16.10;99.90;;;;;;5033205;28;20069;-67
2021/06/28 04:01:15;;;;;;;18.60;15.73;;;16.10;99.90;;;;;;5033145;28;20046;-67
2021/06/28 04:03:40;;;;;;;22.33;17.73;;;16.10;99.90;;;;;;5033240;28;20502;-67
2021/06/28 04:06:10;;;;;;;21.05;17.15;;;16.10;99.90;;;;;;5033079;28;20056;-67
2021/06/28 04:08:39;;;;;;;20.85;17.08;;;16.20;99.90;;;;;;5033461;28;20083;-67
2021/06/28 04:11:05;;;;;;;18.48;16.05;;;16.20;99.90;;;;;;5033286;28;20079;-67
2021/06/28 04:13:31;;;;;;;24.67;18.98;;;16.20;99.90;;;;;;5033188;28;20376;-67
2021/06/28 04:15:57;;;;;;;28.85;21.75;;;16.20;99.90;;;;;;5032901;28;20025;-67
2021/06/28 04:18:22;;;;;;;22.17;18.88;;;16.30;99.90;;;;;;5031648;28;20022;-67
2021/06/28 04:20:48;;;;;;;23.58;19.08;;;16.30;99.90;;;;;;5032963;28;20029;-67
2021/06/28 04:23:14;;;;;;;25.70;20.30;;;16.30;99.90;;;;;;5033285;28;20104;-67
2021/06/28 04:25:41;;;;;;;21.40;18.30;;;16.30;99.90;;;;;;5033144;28;20021;-68
2021/06/28 04:28:07;;;;;;;23.27;18.83;;;16.50;99.90;;;;;;5032869;28;20397;-67
2021/06/28 04:30:32;;;;;;;21.50;18.00;;;16.50;99.90;;;;;;5032966;28;20022;-67
2021/06/28 04:32:58;;;;;;;22.15;18.77;;;16.50;99.90;;;;;;5033472;28;20030;-67
2021/06/28 04:35:25;;;;;;;21.27;17.63;;;16.60;99.90;;;;;;5032750;28;20029;-67
2021/06/28 04:37:53;;;;;;;23.20;18.95;;;16.70;99.90;;;;;;5032812;28;20026;-67
2021/06/28 04:40:22;;;;;;;19.52;16.77;;;16.80;99.90;;;;;;5031469;28;20369;-67
2021/06/28 04:42:49;;;;;;;18.85;16.45;;;16.80;99.90;;;;;;5031475;28;20475;-67
2021/06/28 04:45:15;;;;;;;24.65;19.33;;;16.90;99.90;;;;;;5032835;28;20379;-67
2021/06/28 04:47:42;;;;;;;25.33;18.65;;;17.00;99.90;;;;;;5032776;28;20021;-67
2021/06/28 04:50:09;;;;;;;24.15;18.17;;;17.10;99.90;;;;;;5031227;28;20129;-67
2021/06/28 04:52:36;;;;;;;20.95;17.27;;;17.20;99.90;;;;;;5032803;28;20037;-67
2021/06/28 04:55:05;;;;;;;21.52;18.00;;;17.40;99.90;;;;;;5035981;28;20021;-67
2021/06/28 04:57:30;;;;;;;18.05;16.15;;;17.70;99.90;;;;;;5036715;28;20061;-67
2021/06/28 04:59:56;;;;;;;16.40;13.32;;;18.10;99.90;;;;;;5036468;28;20061;-67
2021/06/28 05:02:22;;;;;;;10.73;9.63;;;18.60;99.90;;;;;;5036272;28;20455;-67
2021/06/28 05:04:47;;;;;;;10.23;9.25;;;19.20;99.90;;;;;;5036041;28;20025;-67
2021/06/28 05:07:17;;;;;;;9.60;8.68;;;19.70;99.90;;;;;;5036240;28;20021;-67
2021/06/28 05:09:43;;;;;;;11.15;10.10;;;20.30;99.90;;;;;;5036356;28;20029;-67
2021/06/28 05:12:09;;;;;;;10.75;9.70;;;20.70;99.90;;;;;;5036291;28;20037;-67
2021/06/28 05:14:35;;;;;;;10.10;9.05;;;21.00;99.10;;;;;;5035957;28;20041;-67
2021/06/28 05:17:00;;;;;;;10.35;9.38;;;21.30;98.40;;;;;;5035865;28;20506;-67
2021/06/28 05:19:26;;;;;;;12.18;10.98;;;21.50;97.80;;;;;;5035897;28;20021;-68
2021/06/28 05:21:52;;;;;;;12.00;9.60;;;21.70;97.30;;;;;;5036292;28;20075;-67
2021/06/28 05:24:17;;;;;;;9.77;8.88;;;21.80;96.80;;;;;;5036059;28;20056;-67
2021/06/28 05:26:43;;;;;;;11.77;10.60;;;21.70;96.20;;;;;;5035944;28;20379;-67
2021/06/28 05:29:08;;;;;;;11.07;9.93;;;21.60;95.40;;;;;;5035918;28;20036;-67
2021/06/28 05:31:34;;;;;;;10.00;9.00;;;21.50;95.40;;;;;;5035937;28;20371;-67
2021/06/28 05:33:59;;;;;;;9.60;8.70;;;21.40;95.30;;;;;;5035638;28;20042;-67
2021/06/28 05:36:25;;;;;;;9.45;8.50;;;21.40;95.40;;;;;;5035744;28;20038;-67
2021/06/28 05:38:50;;;;;;;10.75;9.65;;;21.50;95.20;;;;;;5035802;28;20026;-67
2021/06/28 05:41:17;;;;;;;10.60;9.55;;;21.60;95.00;;;;;;5036017;28;20096;-67
2021/06/28 05:43:44;;;;;;;9.40;7.88;;;21.60;94.90;;;;;;5035868;28;20033;-67
2021/06/28 05:46:09;;;;;;;11.00;9.98;;;21.70;94.80;;;;;;5035716;28;20028;-67
2021/06/28 05:48:35;;;;;;;11.18;10.05;;;21.80;94.70;;;;;;5035406;28;20025;-67
2021/06/28 05:51:01;;;;;;;11.32;10.20;;;22.00;94.60;;;;;;5035512;28;20021;-67
2021/06/28 05:53:26;;;;;;;14.57;12.93;;;22.00;93.70;;;;;;5035314;28;20047;-67
2021/06/28 05:55:52;;;;;;;12.88;11.57;;;21.80;93.60;;;;;;5035350;28;20029;-67
2021/06/28 05:58:22;;;;;;;14.50;13.07;;;21.70;93.90;;;;;;5035434;28;20067;-67
2021/06/28 06:00:47;;;;;;;14.57;13.05;;;21.70;93.80;;;;;;5035348;28;20395;-67
2021/06/28 06:03:13;;;;;;;14.00;12.68;;;21.70;93.80;;;;;;5035633;28;20035;-67
2021/06/28 06:05:38;;;;;;;16.08;14.52;;;21.70;93.80;;;;;;5033897;28;20375;-67
2021/06/28 06:08:04;;;;;;;17.10;15.30;;;21.70;94.00;;;;;;5035148;28;20037;-67
2021/06/28 06:10:30;;;;;;;18.35;16.50;;;21.70;93.80;;;;;;5034946;28;20387;-67
2021/06/28 06:12:55;;;;;;;17.00;15.23;;;21.70;93.70;;;;;;5034942;28;20072;-67
2021/06/28 06:15:21;;;;;;;13.93;12.57;;;21.70;93.70;;;;;;5034297;28;20021;-67
2021/06/28 06:17:47;;;;;;;15.77;13.98;;;21.70;93.50;;;;;;5034861;28;20041;-67
2021/06/28 06:20:12;;;;;;;17.13;15.40;;;21.70;93.40;;;;;;5034863;28;20049;-67
2021/06/28 06:22:38;;;;;;;14.80;13.05;;;21.60;93.60;;;;;;5034865;28;20056;-67
2021/06/28 06:25:05;;;;;;;19.08;15.27;;;21.70;93.50;;;;;;5034847;28;20431;-67
2021/06/28 06:27:31;;;;;;;16.55;14.95;;;21.70;93.40;;;;;;5034889;28;20033;-67
2021/06/28 06:29:57;;;;;;;15.10;13.50;;;21.60;93.60;;;;;;5034848;28;20476;-67
2021/06/28 06:32:23;;;;;;;16.35;14.10;;;21.70;93.40;;;;;;5034670;28;20025;-67
2021/06/28 06:34:49;;;;;;;15.52;13.85;;;21.60;93.40;;;;;;5034421;28;20025;-67
2021/06/28 06:37:15;;;;;;;18.75;15.52;;;21.60;93.30;;;;;;5034443;28;20037;-67
2021/06/28 06:39:40;;;;;;;17.20;14.80;;;21.70;93.50;;;;;;5034576;28;20430;-67
2021/06/28 06:42:06;;;;;;;16.23;14.55;;;21.70;93.50;;;;;;5034803;28;20033;-67
2021/06/28 06:44:32;;;;;;;16.52;14.02;;;21.70;93.70;;;;;;5033236;28;20134;-67
2021/06/28 06:46:57;;;;;;;15.88;14.10;;;21.80;93.40;;;;;;5034449;28;20037;-67
2021/06/28 06:49:23;;;;;;;16.08;13.98;;;21.70;93.40;;;;;;5034216;28;20038;-67
2021/06/28 06:51:49;;;;;;;17.13;14.55;;;21.70;93.30;;;;;;5034233;28;20029;-67
2021/06/28 06:54:16;;;;;;;20.60;16.95;;;21.80;93.40;;;;;;5034698;28;20028;-67
2021/06/28 06:56:42;;;;;;;15.52;13.88;;;21.90;93.20;;;;;;5034599;28;20079;-67
2021/06/28 06:59:07;;;;;;;18.90;16.90;;;22.00;93.20;;;;;;5034667;28;20025;-67
2021/06/28 07:01:33;;;;;;;17.70;15.90;;;22.00;93.20;;;;;;5034284;28;20426;-67
2021/06/28 07:03:59;;;;;;;17.20;15.40;;;22.00;92.90;;;;;;5034018;28;20041;-67
2021/06/28 07:06:25;;;;;;;17.50;15.40;;;22.10;92.80;;;;;;5034044;28;20116;-67
2021/06/28 07:08:50;;;;;;;18.38;16.27;;;22.10;92.70;;;;;;5034136;28;20454;-67
2021/06/28 07:11:17;;;;;;;18.70;15.82;;;22.10;92.80;;;;;;5033947;28;20060;-67
2021/06/28 07:13:43;;;;;;;17.58;15.73;;;22.20;92.80;;;;;;5033802;28;20451;-67
2021/06/28 07:16:10;;;;;;;20.52;15.68;;;22.30;92.90;;;;;;5033458;28;20025;-67
2021/06/28 07:18:36;;;;;;;19.00;16.95;;;22.40;93.10;;;;;;5033678;28;20380;-67
2021/06/28 07:21:03;;;;;;;18.23;16.05;;;22.50;93.10;;;;;;5033688;28;20057;-67
2021/06/28 07:23:30;;;;;;;18.35;16.20;;;22.50;92.70;;;;;;5033839;28;20018;-67
2021/06/28 07:25:56;;;;;;;19.42;16.65;;;22.60;92.50;;;;;;5033915;28;20026;-67
2021/06/28 07:28:23;;;;;;;16.25;14.57;;;22.60;92.50;;;;;;5033618;28;20025;-67
2021/06/28 07:30:49;;;;;;;21.08;17.13;;;22.80;92.80;;;;;;5033682;28;20017;-67
2021/06/28 07:33:15;;;;;;;16.98;14.95;;;22.80;92.60;;;;;;5033529;28;20028;-67
2021/06/28 07:35:40;;;;;;;16.27;14.57;;;22.90;92.40;;;;;;5033636;28;20456;-67
2021/06/28 07:38:06;;;;;;;21.67;15.70;;;22.80;92.00;;;;;;5033406;28;20025;-67
2021/06/28 07:40:31;;;;;;;17.67;15.85;;;22.90;92.20;;;;;;5033326;28;20127;-67
2021/06/28 07:42:57;;;;;;;17.45;15.45;;;23.00;91.90;;;;;;5033434;28;20487;-67
2021/06/28 07:45:24;;;;;;;19.92;17.33;;;23.00;91.60;;;;;;5033467;28;20026;-67
2021/06/28 07:47:49;;;;;;;17.67;15.73;;;23.00;91.40;;;;;;5032042;28;20116;-67
2021/06/28 07:50:16;;;;;;;16.35;14.65;;;23.10;91.30;;;;;;5033393;28;20104;-67
2021/06/28 07:52:42;;;;;;;18.02;16.13;;;23.10;91.30;;;;;;5032097;28;20025;-67
2021/06/28 07:55:10;;;;;;;18.45;16.50;;;23.20;91.70;;;;;;5033388;28;20029;-67
2021/06/28 07:57:37;;;;;;;19.45;17.45;;;23.30;91.60;;;;;;5032476;28;20037;-67
2021/06/28 08:00:13;;;;;;;19.10;17.15;;;23.40;91.30;;;;;;5033449;28;20026;-67
2021/06/28 08:02:39;;;;;;;20.30;17.50;;;23.40;91.00;;;;;;5033110;28;20083;-67
2021/06/28 08:05:06;;;;;;;21.08;18.33;;;23.40;91.10;;;;;;5033126;28;20033;-67
2021/06/28 08:07:32;;;;;;;17.40;14.38;;;23.40;91.40;;;;;;5031841;28;20079;-67
2021/06/28 08:09:58;;;;;;;13.73;12.35;;;23.50;91.10;;;;;;5033456;28;20033;-67
2021/06/28 08:12:24;;;;;;;15.75;13.30;;;23.70;91.10;;;;;;5032821;28;20022;-67
2021/06/28 08:14:49;;;;;;;11.75;10.23;;;23.80;90.90;;;;;;5033046;28;20022;-67
2021/06/28 08:17:15;;;;;;;12.15;10.88;;;23.90;90.90;;;;;;5032954;28;20040;-67
2021/06/28 08:19:42;;;;;;;10.75;9.65;;;24.10;90.20;;;;;;5033043;28;20021;-67
2021/06/28 08:22:09;;;;;;;12.15;9.77;;;24.20;90.00;;;;;;5033063;28;20391;-67
2021/06/28 08:24:35;;;;;;;11.95;10.75;;;24.30;90.10;;;;;;5033274;28;20026;-68
2021/06/28 08:27:00;;;;;;;16.23;11.30;;;24.40;89.70;;;;;;5032934;28;20136;-67
2021/06/28 08:29:26;;;;;;;10.75;9.30;;;24.50;88.60;;;;;;5035523;28;20030;-67
2021/06/28 08:31:51;;;;;;;9.98;8.90;;;24.50;88.70;;;;;;5036856;28;20033;-67
2021/06/28 08:34:17;;;;;;;12.02;10.70;;;24.70;88.90;;;;;;5036943;28;20095;-67
2021/06/28 08:36:47;;;;;;;9.98;8.98;;;24.80;88.50;;;;;;5037019;28;20057;-67
2021/06/28 08:39:15;;;;;;;11.25;10.15;;;24.90;88.20;;;;;;5036673;28;20026;-67
2021/06/28 08:41:47;;;;;;;11.80;10.63;;;25.00;88.10;;;;;;5036896;28;20503;-67
2021/06/28 08:44:13;;;;;;;12.68;9.80;;;25.10;88.20;;;;;;5036579;28;20476;-67
2021/06/28 08:46:40;;;;;;;13.52;12.13;;;25.20;88.00;;;;;;5037050;28;20376;-67
2021/06/28 08:49:06;;;;;;;12.68;10.30;;;25.40;87.50;;;;;;5036421;28;20057;-67
2021/06/28 08:51:32;;;;;;;15.18;12.55;;;25.40;87.30;;;;;;5036702;28;20525;-67
2021/06/28 08:53:58;;;;;;;10.68;9.57;;;25.40;86.00;;;;;;5036616;28;20034;-67
2021/06/28 08:56:24;;;;;;;9.65;8.55;;;25.30;84.90;;;;;;5036554;28;20027;-67
2021/06/28 08:58:49;;;;;;;10.48;8.93;;;25.30;85.10;;;;;;5036577;28;20067;-67
2021/06/28 09:01:15;;;;;;;10.45;9.45;;;25.30;85.50;;;;;;5036641;28;20049;-67
2021/06/28 09:03:41;;;;;;;10.38;9.10;;;25.30;85.40;;;;;;5036288;28;20408;-67
2021/06/28 09:06:07;;;;;;;12.63;11.02;;;25.50;85.40;;;;;;5036290;28;20108;-67
2021/06/28 09:08:34;;;;;;;15.02;10.68;;;25.70;85.10;;;;;;5036135;28;20053;-67
2021/06/28 09:11:01;;;;;;;11.38;9.70;;;25.80;83.60;;;;;;5026365;28;20026;-67
2021/06/28 09:13:40;;;;;;;11.68;9.93;;;26.00;84.20;;;;;;5016266;28;20100;-67
2021/06/28 09:16:25;;;;;;;11.48;9.70;;;26.10;82.60;;;;;;5016531;28;20033;-67
2021/06/28 09:19:01;;;;;;;10.85;8.20;;;26.10;82.90;;;;;;5016348;28;20069;-67
2021/06/28 09:21:32;;;;;;;11.48;10.35;;;26.00;82.40;;;;;;5016398;28;20439;-67
2021/06/28 09:24:00;;;;;;;15.38;13.55;;;26.00;82.50;;;;;;5016352;28;20072;-67
2021/06/28 09:26:30;;;;;;;14.65;12.63;;;26.00;82.80;;;;;;5016203;28;20384;-67
2021/06/28 09:28:58;;;;;;;15.07;12.32;;;26.00;82.40;;;;;;5016463;28;20483;-67
2021/06/28 09:31:31;;;;;;;15.98;14.35;;;26.00;81.50;;;;;;5016183;28;20034;-67
2021/06/28 09:34:13;;;;;;;12.65;11.35;;;26.00;81.80;;;;;;5016185;28;20079;-67
2021/06/28 09:36:47;;;;;;;15.32;13.60;;;25.90;81.90;;;;;;5015850;28;20109;-67
2021/06/28 09:39:38;;;;;;;14.93;10.68;;;26.00;82.00;;;;;;5015654;28;20532;-67
2021/06/28 09:42:07;;;;;;;15.30;13.70;;;26.00;83.00;;;;;;5016861;28;20030;-67
2021/06/28 09:44:35;;;;;;;14.52;11.43;;;26.00;82.30;;;;;;5035658;28;20151;-67
2021/06/28 09:47:05;;;;;;;14.10;12.70;;;26.00;82.40;;;;;;5035430;28;20029;-67
2021/06/28 09:49:31;;;;;;;19.48;13.02;;;25.90;82.60;;;;;;5035579;28;20048;-67
2021/06/28 09:51:56;;;;;;;12.35;11.07;;;25.90;83.20;;;;;;5035495;28;20030;-67
2021/06/28 09:54:22;;;;;;;14.48;12.25;;;26.00;83.80;;;;;;5035473;28;20029;-67
2021/06/28 09:56:53;;;;;;;10.90;9.80;;;26.00;82.90;;;;;;5035485;28;20068;-67
2021/06/28 09:59:32;;;;;;;12.73;10.60;;;26.00;83.40;;;;;;5035322;28;20606;-67
2021/06/28 10:02:18;;;;;;;14.55;13.05;;;26.00;84.00;;;;;;5035300;28;20022;-67
2021/06/28 10:07:29;;;;;;;13.82;12.10;;;26.00;84.40;;;;;;5035325;28;20025;-67
2021/06/28 10:10:11;;;;;;;14.55;13.05;;;26.00;84.00;;;;;;5034788;28;20034;-67
2021/06/28 10:12:38;;;;;;;15.35;13.75;;;26.00;83.00;;;;;;5034949;28;20028;-67
2021/06/28 10:15:12;;;;;;;13.63;12.13;;;25.90;83.10;;;;;;5035136;28;20029;-67
2021/06/28 10:17:39;;;;;;;12.98;11.65;;;25.80;83.90;;;;;;5035061;28;20467;-67
2021/06/28 10:20:07;;;;;;;12.40;11.10;;;25.80;84.60;;;;;;5034984;28;20083;-67
2021/06/28 10:22:35;;;;;;;14.05;12.02;;;25.80;85.20;;;;;;5035005;28;20059;-67
2021/06/28 10:25:02;;;;;;;12.02;10.85;;;25.70;85.90;;;;;;5034898;28;20018;-67
2021/06/28 10:27:28;;;;;;;13.63;12.32;;;25.50;86.70;;;;;;5034875;28;20073;-67
2021/06/28 10:29:54;;;;;;;12.10;10.93;;;25.50;86.70;;;;;;5034815;28;20025;-67
2021/06/28 10:32:20;;;;;;;13.65;12.25;;;25.50;87.00;;;;;;5034913;28;20068;-67
2021/06/28 10:34:52;;;;;;;14.75;12.10;;;25.40;86.70;;;;;;5034767;28;20041;-67
2021/06/28 10:37:47;;;;;;;12.75;11.38;;;25.40;87.00;;;;;;5034432;28;20098;-68
2021/06/28 10:40:19;;;;;;;14.88;12.75;;;25.30;86.40;;;;;;5034790;28;20022;-68
2021/06/28 10:42:53;;;;;;;14.40;12.95;;;25.10;86.70;;;;;;5034805;28;20021;-67
2021/06/28 10:45:37;;;;;;;15.02;13.07;;;25.00;86.70;;;;;;5033130;28;20116;-67
2021/06/28 10:48:06;;;;;;;15.25;13.63;;;24.90;86.70;;;;;;5033224;28;20025;-67
2021/06/28 10:50:52;;;;;;;16.08;13.77;;;24.70;87.20;;;;;;5034135;28;20108;-67
2021/06/28 10:53:33;;;;;;;16.60;14.90;;;24.70;87.80;;;;;;5033060;28;20373;-67
2021/06/28 10:56:39;;;;;;;17.75;15.68;;;24.50;88.10;;;;;;5034104;28;20087;-67
2021/06/28 10:59:22;;;;;;;12.88;11.35;;;24.40;88.70;;;;;;5018821;28;20435;-67
2021/06/28 11:02:03;;;;;;;12.32;11.13;;;24.30;89.80;;;;;;5034176;28;20033;-67
2021/06/28 11:04:30;;;;;;;15.30;13.65;;;24.30;90.40;;;;;;5034170;28;20033;-67
2021/06/28 11:06:58;;;;;;;16.35;14.57;;;24.20;90.50;;;;;;5034267;28;20026;-67
2021/06/28 11:09:46;;;;;;;16.38;14.30;;;24.10;90.60;;;;;;5014408;28;20437;-67
2021/06/28 11:12:21;;;;;;;16.58;14.00;;;24.10;90.70;;;;;;5014314;28;20022;-67
2021/06/28 11:14:48;;;;;;;16.25;14.52;;;24.00;90.60;;;;;;5013867;28;20041;-67
2021/06/28 11:17:17;;;;;;;16.15;14.43;;;24.00;90.80;;;;;;5018785;28;20021;-67
2021/06/28 11:19:55;;;;;;;15.45;12.60;;;23.90;91.00;;;;;;5033848;28;20025;-67
2021/06/28 11:22:38;;;;;;;18.13;15.50;;;23.90;91.20;;;;;;5034137;28;20018;-67
2021/06/28 11:25:13;;;;;;;15.38;13.68;;;23.90;91.20;;;;;;5033780;28;20017;-69
2021/06/28 11:27:45;;;;;;;17.90;15.90;;;23.90;91.50;;;;;;5033770;28;20080;-67
2021/06/28 11:30:13;;;;;;;;;;;23.80;91.50;;;;;;5034360;28;20033;-67
2021/06/28 11:32:54;;;;;;;19.15;15.02;;;23.70;91.40;;;;;;5033844;28;19988;-67
2021/06/28 11:35:45;;;;;;;17.40;15.50;;;23.70;91.50;;;;;;5033751;28;20037;-67
2021/06/28 11:38:17;;;;;;;17.42;15.63;;;23.70;91.40;;;;;;5033717;28;20084;-67
2021/06/28 11:40:45;;;;;;;16.13;14.43;;;23.70;91.60;;;;;;5033916;28;20105;-67
2021/06/28 11:43:11;;;;;;;17.67;15.10;;;23.70;91.70;;;;;;5033296;28;20071;-67
2021/06/28 11:45:51;;;;;;;15.00;13.45;;;23.70;91.50;;;;;;5033535;28;20025;-67
2021/06/28 11:48:38;;;;;;;17.63;15.73;;;23.70;91.70;;;;;;5033318;28;20038;-67
2021/06/28 11:51:20;;;;;;;18.67;15.98;;;23.70;91.70;;;;;;5033547;28;20071;-67
2021/06/28 11:53:55;;;;;;;15.52;13.93;;;23.70;91.60;;;;;;5033518;28;20022;-67
2021/06/28 11:56:42;;;;;;;17.35;14.77;;;23.70;91.60;;;;;;5033274;28;20025;-67
2021/06/28 11:59:11;;;;;;;14.48;12.52;;;23.70;91.40;;;;;;5033406;28;20029;-68
2021/06/28 12:01:58;;;;;;;15.35;13.80;;;23.70;91.40;;;;;;5033280;28;20034;-67
2021/06/28 12:04:42;;;;;;;16.27;14.60;;;23.60;91.30;;;;;;5033367;28;20017;-67
2021/06/28 12:07:08;;;;;;;16.75;13.60;;;23.60;91.20;;;;;;5020563;28;20180;-67
2021/06/28 12:09:38;;;;;;;15.48;12.90;;;23.60;91.40;;;;;;5013530;28;20065;-67
2021/06/28 12:12:15;;;;;;;14.85;13.27;;;23.60;91.70;;;;;;5013419;28;20029;-67
2021/06/28 12:14:43;;;;;;;14.18;12.38;;;23.60;91.40;;;;;;5013212;28;20076;-67
2021/06/28 12:17:16;;;;;;;16.10;13.75;;;23.70;91.20;;;;;;5013360;28;20092;-67
2021/06/28 12:19:46;;;;;;;14.95;13.13;;;23.70;91.00;;;;;;5013812;28;20050;-67
2021/06/28 12:22:14;;;;;;;15.93;14.18;;;23.90;91.30;;;;;;5013598;28;20111;-67
2021/06/28 12:24:41;;;;;;;18.13;15.18;;;24.00;91.00;;;;;;5013507;28;20017;-67
2021/06/28 12:27:13;;;;;;;19.52;17.48;;;24.00;90.80;;;;;;5013314;28;20026;-67
2021/06/28 12:29:50;;;;;;;22.05;17.35;;;24.10;90.60;;;;;;5013747;28;20081;-67
2021/06/28 12:32:28;;;;;;;20.30;17.15;;;24.20;90.90;;;;;;5013345;28;20025;-67
2021/06/28 12:35:03;;;;;;;18.45;15.93;;;24.30;90.80;;;;;;5013452;28;20072;-67
2021/06/28 12:37:34;;;;;;;17.55;15.68;;;24.40;90.90;;;;;;5013095;28;20030;-67